Time;durP1;ratioP1;P1;durP2;ratioP2;P2;SDS_P1;SDS_P2;PMS_P1;PMS_P2;Temp;Humidity;BMP_temperature;BMP_pressure;BME280_temperature;BME280_humidity;BME280_pressure;Samples;Min_cycle;Max_cycle;Signal;HPM_P1;HPM_P2
2023/06/03 00:02:06;;;;;;;68.77;7.60;;;15.00;2.60;;;;;;4884035;29;20971;-78
2023/06/03 00:04:31;;;;;;;72.97;9.07;;;14.90;2.70;;;;;;4884039;29;20414;-79
2023/06/03 00:06:57;;;;;;;69.67;8.40;;;14.90;5.90;;;;;;4883630;29;20694;-78
2023/06/03 00:09:23;;;;;;;70.07;8.67;;;14.80;6.90;;;;;;4884318;29;20182;-77
2023/06/03 00:11:49;;;;;;;67.77;7.73;;;14.90;5.40;;;;;;4884002;29;20170;-79
2023/06/03 00:14:15;;;;;;;69.47;7.57;;;14.70;10.70;;;;;;4883741;29;20256;-78
2023/06/03 00:16:45;;;;;;;68.30;7.93;;;14.60;13.00;;;;;;4884099;29;20228;-79
2023/06/03 00:19:14;;;;;;;69.80;8.17;;;14.70;11.00;;;;;;4883934;29;20421;-79
2023/06/03 00:21:49;;;;;;;78.17;9.17;;;14.60;16.20;;;;;;4883903;29;20417;-78
2023/06/03 00:24:22;;;;;;;73.00;9.03;;;14.50;18.10;;;;;;4882223;29;20425;-78
2023/06/03 00:26:54;;;;;;;69.60;11.47;;;14.40;20.90;;;;;;4884326;29;20805;-79
2023/06/03 00:29:20;;;;;;;71.20;10.70;;;14.20;24.80;;;;;;4883756;29;20444;-79
2023/06/03 00:31:46;;;;;;;71.17;11.63;;;14.30;25.90;;;;;;4883992;29;20416;-79
2023/06/03 00:34:12;;;;;;;69.77;11.67;;;14.40;21.40;;;;;;4883768;29;20207;-78
2023/06/03 00:36:39;;;;;;;70.50;12.90;;;14.30;24.60;;;;;;4883414;29;20839;-77
2023/06/03 00:39:05;;;;;;;70.57;12.00;;;14.10;27.90;;;;;;4883705;29;20173;-79
2023/06/03 00:41:30;;;;;;;71.63;11.33;;;14.00;29.50;;;;;;4882265;29;20457;-78
2023/06/03 00:43:56;;;;;;;75.13;12.43;;;14.00;32.80;;;;;;4883361;29;20262;-79
2023/06/03 00:46:22;;;;;;;71.67;12.10;;;13.90;33.80;;;;;;4883592;29;20202;-77
2023/06/03 00:48:48;;;;;;;72.73;12.70;;;13.90;37.70;;;;;;4883552;29;20200;-79
2023/06/03 00:51:15;;;;;;;75.20;13.87;;;13.80;38.20;;;;;;4883251;29;20246;-78
2023/06/03 00:53:41;;;;;;;72.50;14.07;;;13.70;41.50;;;;;;4883491;29;21023;-79
2023/06/03 00:56:07;;;;;;;73.50;13.80;;;13.70;41.50;;;;;;4883529;29;20416;-79
2023/06/03 00:58:32;;;;;;;71.17;13.13;;;13.60;45.60;;;;;;4883598;29;20175;-79
2023/06/03 01:00:59;;;;;;;79.70;15.33;;;13.60;45.00;;;;;;4883226;29;20417;-79
2023/06/03 01:03:25;;;;;;;71.80;15.73;;;13.60;45.90;;;;;;4883856;29;20420;-78
2023/06/03 01:06:14;;;;;;;72.10;14.37;;;13.70;45.80;;;;;;4882708;29;20416;-79
2023/06/03 01:09:02;;;;;;;70.17;13.30;;;13.70;42.50;;;;;;4882123;29;20417;-78
2023/06/03 01:11:49;;;;;;;72.50;14.37;;;13.70;43.40;;;;;;4881741;29;20411;-79
2023/06/03 01:14:38;;;;;;;73.60;14.63;;;13.60;45.70;;;;;;4883258;29;20433;-79
2023/06/03 01:17:12;;;;;;;71.73;16.30;;;13.40;46.90;;;;;;4883100;29;20439;-79
2023/06/03 01:19:49;;;;;;;72.57;15.27;;;13.40;49.40;;;;;;4882708;29;20428;-79
2023/06/03 01:22:20;;;;;;;74.87;14.33;;;13.30;50.90;;;;;;4883490;29;20389;-79
2023/06/03 01:24:53;;;;;;;75.33;16.53;;;13.40;47.90;;;;;;4883347;29;20574;-79
2023/06/03 01:27:20;;;;;;;76.67;15.27;;;13.30;48.40;;;;;;4882963;29;20428;-79
2023/06/03 01:29:46;;;;;;;72.27;17.10;;;13.40;46.10;;;;;;4883121;29;20502;-79
2023/06/03 01:32:15;;;;;;;76.97;15.30;;;13.30;49.60;;;;;;4881460;29;20427;-79
2023/06/03 01:34:41;;;;;;;75.10;20.10;;;13.40;44.20;;;;;;4882697;29;20457;-79
2023/06/03 01:37:11;;;;;;;77.40;25.83;;;13.20;51.90;;;;;;4883231;29;20445;-79
2023/06/03 01:39:41;;;;;;;75.10;26.80;;;13.10;59.60;;;;;;4882997;29;20396;-79
2023/06/03 01:42:10;;;;;;;72.33;23.77;;;13.00;64.80;;;;;;4883177;29;20410;-79
2023/06/03 01:44:37;;;;;;;76.83;27.17;;;13.10;66.00;;;;;;4882897;29;20421;-78
2023/06/03 01:47:03;;;;;;;74.87;25.37;;;13.10;62.00;;;;;;4882981;29;20439;-79
2023/06/03 01:49:31;;;;;;;78.53;34.97;;;13.00;59.20;;;;;;4882169;29;20500;-79
2023/06/03 01:51:58;;;;;;;76.80;26.67;;;13.00;66.80;;;;;;4882961;29;20494;-79
2023/06/03 01:54:25;;;;;;;74.27;22.90;;;13.10;59.30;;;;;;4882924;29;20534;-79
2023/06/03 01:56:52;;;;;;;76.10;29.10;;;13.00;61.20;;;;;;4881639;29;20435;-79
2023/06/03 01:59:25;;;;;;;80.87;35.83;;;13.00;66.10;;;;;;4882764;29;20420;-79
2023/06/03 02:01:56;;;;;;;76.03;29.23;;;12.80;71.80;;;;;;4883119;29;20396;-79
2023/06/03 02:04:22;;;;;;;77.37;30.00;;;12.90;70.70;;;;;;4886654;29;20439;-78
2023/06/03 02:06:50;;;;;;;78.00;33.93;;;12.80;74.00;;;;;;4886560;29;20462;-79
2023/06/03 02:09:16;;;;;;;79.40;31.93;;;12.80;74.00;;;;;;4886921;29;20496;-79
2023/06/03 02:11:43;;;;;;;78.37;32.67;;;12.80;71.40;;;;;;4885074;29;20426;-79
2023/06/03 02:14:11;;;;;;;78.63;31.67;;;12.70;78.00;;;;;;4886735;29;20457;-79
2023/06/03 02:16:37;;;;;;;79.77;30.73;;;12.70;76.10;;;;;;4886361;29;20437;-79
2023/06/03 02:19:27;;;;;;;78.77;32.00;;;12.70;75.20;;;;;;4885641;29;20508;-78
2023/06/03 02:21:54;;;;;;;76.90;27.30;;;12.70;76.40;;;;;;4886516;29;20385;-79
2023/06/03 02:24:19;;;;;;;77.43;28.70;;;12.60;79.10;;;;;;4886026;29;20407;-78
2023/06/03 02:26:52;;;;;;;75.27;30.27;;;12.50;83.40;;;;;;4886830;29;20471;-79
2023/06/03 02:29:22;;;;;;;76.80;27.33;;;12.50;84.80;;;;;;4886103;29;20151;-79
2023/06/03 02:31:50;;;;;;;80.90;28.80;;;12.40;83.70;;;;;;4884908;29;20411;-79
2023/06/03 02:34:16;;;;;;;76.50;29.07;;;12.40;90.00;;;;;;4886005;29;20446;-79
2023/06/03 02:36:44;;;;;;;77.90;31.80;;;12.40;89.80;;;;;;4885046;29;20438;-79
2023/06/03 02:39:11;;;;;;;77.03;25.60;;;12.40;86.80;;;;;;4886087;29;20414;-79
2023/06/03 02:41:38;;;;;;;76.60;26.37;;;12.40;90.10;;;;;;4886215;29;20551;-79
2023/06/03 02:44:04;;;;;;;76.07;26.27;;;12.30;90.30;;;;;;4886366;29;20414;-79
2023/06/03 02:46:30;;;;;;;83.00;32.77;;;12.30;91.50;;;;;;4884342;29;20453;-79
2023/06/03 02:48:56;;;;;;;75.57;24.37;;;12.20;90.60;;;;;;4885675;29;20186;-79
2023/06/03 02:51:22;;;;;;;80.07;28.40;;;12.20;92.20;;;;;;4886031;29;20495;-79
2023/06/03 02:53:50;;;;;;;74.33;25.60;;;12.40;90.30;;;;;;4885824;29;20835;-79
2023/06/03 02:56:16;;;;;;;78.10;23.17;;;12.30;89.20;;;;;;4885595;29;20431;-79
2023/06/03 02:58:41;;;;;;;72.37;19.77;;;12.20;90.60;;;;;;4885656;29;20424;-79
2023/06/03 03:01:07;;;;;;;79.43;25.87;;;12.10;90.50;;;;;;4885919;29;20411;-79
2023/06/03 03:03:36;;;;;;;78.03;26.90;;;12.00;93.60;;;;;;4886126;29;20167;-79
2023/06/03 03:06:06;;;;;;;76.03;24.30;;;12.00;94.30;;;;;;4885367;29;20205;-79
2023/06/03 03:08:34;;;;;;;76.47;22.63;;;12.00;93.90;;;;;;4885676;29;20439;-79
2023/06/03 03:11:00;;;;;;;75.77;24.47;;;12.00;95.90;;;;;;4885975;29;20451;-79
2023/06/03 03:13:26;;;;;;;73.53;22.43;;;12.00;94.10;;;;;;4884975;29;20462;-79
2023/06/03 03:15:51;;;;;;;80.70;26.40;;;11.90;93.60;;;;;;4885820;29;20175;-79
2023/06/03 03:18:17;;;;;;;75.07;22.87;;;11.90;96.60;;;;;;4885446;29;20670;-79
2023/06/03 03:20:43;;;;;;;79.07;21.57;;;11.90;93.00;;;;;;4885330;29;20407;-79
2023/06/03 03:23:12;;;;;;;79.20;21.87;;;11.90;94.50;;;;;;4885370;29;20246;-78
2023/06/03 03:25:38;;;;;;;75.00;23.03;;;11.80;94.30;;;;;;4884225;29;20235;-78
2023/06/03 03:28:04;;;;;;;76.97;22.40;;;11.70;95.50;;;;;;4885820;29;20832;-77
2023/06/03 03:30:29;;;;;;;78.83;19.83;;;11.80;94.80;;;;;;4885234;29;20169;-79
2023/06/03 03:32:58;;;;;;;76.27;19.77;;;11.80;95.50;;;;;;4884758;29;20208;-79
2023/06/03 03:35:25;;;;;;;75.90;24.00;;;11.80;94.90;;;;;;4884993;29;20250;-79
2023/06/03 03:38:01;;;;;;;73.60;21.17;;;11.80;96.70;;;;;;4884964;29;20455;-78
2023/06/03 03:40:26;;;;;;;74.93;18.77;;;11.80;95.90;;;;;;4883928;29;20791;-79
2023/06/03 03:42:53;;;;;;;73.47;19.37;;;11.80;96.00;;;;;;4885324;29;20404;-79
2023/06/03 03:45:21;;;;;;;79.15;25.05;;;11.70;96.50;;;;;;4884109;29;20158;-79
2023/06/03 03:47:52;;;;;;;74.17;24.87;;;11.70;99.40;;;;;;4884873;29;20191;-80
2023/06/03 03:50:42;;;;;;;73.05;20.67;;;11.70;97.40;;;;;;4951748;23;20511;-86
2023/06/03 03:53:15;;;;;;;72.23;20.00;;;11.70;98.30;;;;;;4888683;29;20202;-86
2023/06/03 03:55:43;;;;;;;74.57;22.67;;;11.70;98.70;;;;;;4887248;29;20407;-86
2023/06/03 03:58:27;;;;;;;71.60;21.77;;;11.70;99.80;;;;;;4887393;29;20435;-86
2023/06/03 04:00:57;;;;;;;73.17;19.27;;;11.70;99.20;;;;;;4888925;29;20407;-86
2023/06/03 04:03:24;;;;;;;72.43;20.30;;;11.60;99.90;;;;;;4887335;29;20423;-86
2023/06/03 04:05:50;;;;;;;76.40;20.97;;;11.70;99.90;;;;;;4887412;29;20440;-86
2023/06/03 04:08:38;;;;;;;72.43;20.17;;;11.70;99.90;;;;;;4887732;29;20439;-86
2023/06/03 04:11:05;;;;;;;76.50;21.60;;;11.70;99.90;;;;;;4887649;29;20829;-85
2023/06/03 04:13:35;;;;;;;73.97;19.77;;;11.60;99.90;;;;;;4888178;29;20451;-86
2023/06/03 04:16:06;;;;;;;74.60;23.85;;;11.70;99.90;;;;;;4887189;29;20902;-86
2023/06/03 04:18:33;;;;;;;77.43;25.13;;;11.70;99.90;;;;;;4887999;29;20167;-86
2023/06/03 04:20:59;;;;;;;73.87;22.80;;;11.70;99.90;;;;;;4887976;29;20422;-86
2023/06/03 04:23:27;;;;;;;76.15;20.00;;;11.80;99.90;;;;;;4887215;29;20427;-86
2023/06/03 04:25:53;;;;;;;72.83;15.50;;;11.80;99.90;;;;;;4884985;29;20599;-86
2023/06/03 04:28:26;;;;;;;73.67;17.03;;;12.00;99.90;;;;;;4886763;29;20407;-86
2023/06/03 04:30:52;;;;;;;73.40;17.17;;;12.00;99.90;;;;;;4886649;29;20400;-86
2023/06/03 04:33:21;;;;;;;75.90;13.87;;;12.00;99.90;;;;;;4887316;29;20462;-86
2023/06/03 04:35:46;;;;;;;73.23;17.00;;;12.20;99.90;;;;;;4886504;29;20226;-86
2023/06/03 04:38:12;;;;;;;76.80;22.30;;;12.30;99.90;;;;;;4885948;29;20510;-85
2023/06/03 04:40:38;;;;;;;77.03;26.07;;;12.60;99.90;;;;;;4886699;29;20174;-86
2023/06/03 04:43:03;;;;;;;80.33;42.20;;;12.90;98.80;;;;;;4886078;29;20411;-86
2023/06/03 04:45:31;;;;;;;76.87;32.87;;;13.20;97.70;;;;;;4886455;29;20206;-86
2023/06/03 04:48:01;;;;;;;76.07;19.50;;;13.60;92.00;;;;;;4884584;29;20205;-86
2023/06/03 04:50:34;;;;;;;70.57;11.17;;;14.00;90.70;;;;;;4886558;29;20935;-86
2023/06/03 04:53:01;;;;;;;73.20;10.67;;;14.40;79.90;;;;;;4886020;29;20447;-86
2023/06/03 04:55:31;;;;;;;68.77;8.63;;;14.70;64.90;;;;;;4885447;29;20451;-86
2023/06/03 04:58:00;;;;;;;68.93;5.20;;;15.00;51.30;;;;;;4886337;29;20488;-86
2023/06/03 05:00:27;;;;;;;69.03;4.97;;;15.30;32.50;;;;;;4885688;29;20428;-86
2023/06/03 05:02:56;;;;;;;68.07;5.30;;;15.30;22.10;;;;;;4884727;29;20416;-86
2023/06/03 05:05:26;;;;;;;68.40;7.00;;;15.50;14.60;;;;;;4885009;29;20452;-86
2023/06/03 05:07:52;;;;;;;68.30;7.80;;;15.30;1.00;;;;;;4885601;29;20488;-86
2023/06/03 05:10:18;;;;;;;72.90;10.27;;;15.30;1.00;;;;;;4887400;29;20408;-86
2023/06/03 05:12:45;;;;;;;73.70;11.60;;;15.30;1.00;;;;;;4885044;29;20406;-86
2023/06/03 05:15:11;;;;;;;69.37;11.17;;;15.40;1.00;;;;;;4884836;29;20416;-86
2023/06/03 05:17:52;;;;;;;69.30;11.70;;;15.40;1.00;;;;;;4886727;29;20436;-86
2023/06/03 05:20:17;;;;;;;69.33;10.00;;;15.40;1.00;;;;;;4885509;29;20404;-86
2023/06/03 05:22:43;;;;;;;68.47;10.63;;;15.40;1.00;;;;;;4885847;29;20985;-86
2023/06/03 05:25:09;;;;;;;68.67;9.30;;;15.50;1.00;;;;;;4885112;29;20185;-86
2023/06/03 05:27:35;;;;;;;68.47;11.93;;;15.50;1.00;;;;;;4888630;29;20243;-86
2023/06/03 05:30:01;;;;;;;67.37;10.97;;;15.50;1.00;;;;;;4889719;29;20425;-86
2023/06/03 05:32:26;;;;;;;68.50;11.80;;;15.50;1.00;;;;;;4889232;29;20209;-86
2023/06/03 05:34:52;;;;;;;71.17;12.43;;;15.30;1.00;;;;;;4889796;29;20961;-86
2023/06/03 05:37:18;;;;;;;69.47;11.00;;;15.20;1.00;;;;;;4889250;29;20205;-86
2023/06/03 05:39:44;;;;;;;69.80;12.37;;;15.10;1.00;;;;;;4889466;29;20202;-86
2023/06/03 05:42:09;;;;;;;70.63;9.17;;;15.00;1.00;;;;;;4889956;29;20171;-86
2023/06/03 05:44:35;;;;;;;67.47;5.63;;;14.90;1.00;;;;;;4890211;29;20428;-85
2023/06/03 05:47:00;;;;;;;67.03;6.77;;;14.80;1.00;;;;;;4889960;29;20247;-86
2023/06/03 05:49:26;;;;;;;67.83;7.30;;;14.80;1.00;;;;;;4889095;29;20176;-86
2023/06/03 05:51:52;;;;;;;69.57;6.50;;;14.90;1.00;;;;;;4889873;29;20155;-86
2023/06/03 05:54:18;;;;;;;67.20;3.97;;;14.90;1.00;;;;;;4888836;29;20468;-86
2023/06/03 05:56:44;;;;;;;67.00;4.63;;;14.90;1.00;;;;;;4889757;29;20213;-86
2023/06/03 05:59:09;;;;;;;68.10;4.63;;;15.00;1.00;;;;;;4888432;29;20168;-85
2023/06/03 06:01:35;;;;;;;67.37;5.00;;;15.10;1.00;;;;;;4888900;29;20765;-85
2023/06/03 06:04:01;;;;;;;71.60;5.10;;;15.10;1.00;;;;;;4888517;29;20173;-85
2023/06/03 06:06:27;;;;;;;68.60;4.47;;;15.10;1.00;;;;;;4889316;29;20680;-86
2023/06/03 06:08:52;;;;;;;67.70;3.87;;;15.10;1.00;;;;;;4889835;29;20173;-86
2023/06/03 06:11:18;;;;;;;66.10;3.93;;;15.20;1.00;;;;;;4890139;29;20180;-86
2023/06/03 06:13:44;;;;;;;67.10;3.70;;;15.10;1.00;;;;;;4889962;29;20197;-85
2023/06/03 06:16:13;;;;;;;66.90;3.77;;;15.20;1.00;;;;;;4890291;29;20159;-85
2023/06/03 06:18:39;;;;;;;66.40;3.50;;;15.20;1.00;;;;;;4889862;29;20170;-86
2023/06/03 06:21:04;;;;;;;65.90;3.13;;;15.20;1.00;;;;;;4889384;29;20922;-86
2023/06/03 06:23:30;;;;;;;66.10;3.23;;;15.30;1.00;;;;;;4887353;29;20176;-85
2023/06/03 06:25:56;;;;;;;67.03;4.13;;;15.20;1.00;;;;;;4888546;29;20180;-84
2023/06/03 06:28:26;;;;;;;68.27;3.73;;;15.30;1.00;;;;;;4889851;29;20180;-86
2023/06/03 06:30:58;;;;;;;65.90;3.57;;;15.40;1.00;;;;;;4889881;29;20211;-85
2023/06/03 06:33:24;;;;;;;68.67;4.20;;;15.50;1.00;;;;;;4888963;29;20460;-86
2023/06/03 06:35:50;;;;;;;66.70;3.53;;;15.50;1.00;;;;;;4890664;29;20407;-86
2023/06/03 06:38:15;;;;;;;69.60;3.60;;;15.60;1.00;;;;;;4889665;29;20681;-86
2023/06/03 06:40:45;;;;;;;66.70;3.30;;;15.60;1.00;;;;;;4890602;29;20168;-86
2023/06/03 06:43:16;;;;;;;67.47;3.27;;;15.70;1.00;;;;;;4890884;29;20177;-86
2023/06/03 06:45:44;;;;;;;68.30;2.67;;;15.70;1.00;;;;;;4892296;29;20429;-86
2023/06/03 06:48:12;;;;;;;65.90;3.33;;;15.80;1.00;;;;;;4892555;29;20437;-86
2023/06/03 06:50:55;;;;;;;68.30;3.10;;;15.80;1.00;;;;;;4895007;29;20493;-86
2023/06/03 06:53:26;;;;;;;65.60;2.80;;;15.80;1.00;;;;;;4894278;29;20453;-86
2023/06/03 06:55:57;;;;;;;66.63;3.20;;;15.90;1.00;;;;;;4892532;29;20770;-86
2023/06/03 06:58:26;;;;;;;65.27;2.80;;;16.00;1.00;;;;;;4893959;29;20423;-86
2023/06/03 07:00:52;;;;;;;73.90;3.37;;;16.10;1.00;;;;;;4894172;29;20417;-85
2023/06/03 07:03:21;;;;;;;66.70;2.63;;;16.20;1.00;;;;;;4894404;29;20411;-85
2023/06/03 07:05:52;;;;;;;66.90;3.40;;;16.20;1.00;;;;;;4892222;29;20188;-85
2023/06/03 07:08:18;;;;;;;66.20;3.10;;;16.20;1.00;;;;;;4895327;29;20437;-86
2023/06/03 07:10:44;;;;;;;67.00;2.73;;;16.20;1.00;;;;;;4898287;29;20486;-86
2023/06/03 07:13:15;;;;;;;67.70;2.60;;;16.30;1.00;;;;;;4898520;29;20470;-86
2023/06/03 07:15:41;;;;;;;65.87;2.87;;;16.30;1.00;;;;;;4897590;29;20403;-85
2023/06/03 07:18:09;;;;;;;65.57;2.70;;;16.40;1.00;;;;;;4892838;29;20447;-85
2023/06/03 07:20:43;;;;;;;67.30;2.97;;;16.50;1.00;;;;;;4892861;29;20414;-86
2023/06/03 07:23:11;;;;;;;66.37;2.90;;;16.40;1.00;;;;;;4893764;29;20760;-85
2023/06/03 07:25:50;;;;;;;69.00;2.90;;;16.50;1.00;;;;;;4889446;29;20447;-85
2023/06/03 07:28:19;;;;;;;67.80;3.33;;;16.60;1.00;;;;;;4890948;29;20452;-85
2023/06/03 07:30:49;;;;;;;66.77;3.40;;;16.60;1.00;;;;;;4892454;29;20890;-85
2023/06/03 07:33:29;;;;;;;65.57;2.47;;;16.60;1.00;;;;;;4890539;29;20485;-84
2023/06/03 07:35:57;;;;;;;66.40;2.60;;;16.80;1.00;;;;;;4891867;29;20418;-85
2023/06/03 07:38:55;;;;;;;66.80;3.20;;;16.90;1.00;;;;;;4891563;29;20442;-84
2023/06/03 07:41:43;;;;;;;67.27;3.20;;;16.90;1.00;;;;;;4885498;29;20954;-85
2023/06/03 07:44:14;;;;;;;66.30;2.90;;;16.90;1.00;;;;;;4877875;29;20419;-85
2023/06/03 07:46:45;;;;;;;65.63;2.93;;;16.90;1.00;;;;;;4891567;29;20466;-85
2023/06/03 07:49:16;;;;;;;68.00;3.20;;;17.00;1.00;;;;;;4892036;29;20890;-85
2023/06/03 07:51:45;;;;;;;67.17;3.67;;;17.10;1.00;;;;;;4891317;29;20443;-85
2023/06/03 07:54:11;;;;;;;67.43;3.43;;;17.20;1.00;;;;;;4895607;29;20527;-85
2023/06/03 07:56:37;;;;;;;71.20;3.53;;;17.30;1.00;;;;;;4892449;29;20466;-84
2023/06/03 07:59:04;;;;;;;67.57;3.60;;;17.30;1.00;;;;;;4893316;29;20407;-85
2023/06/03 08:01:31;;;;;;;71.40;3.40;;;17.40;1.00;;;;;;4893948;29;20396;-85
2023/06/03 08:03:59;;;;;;;68.73;3.80;;;17.50;1.00;;;;;;4893977;29;20423;-85
2023/06/03 08:06:27;;;;;;;66.70;4.13;;;17.50;1.00;;;;;;4892808;29;20472;-85
2023/06/03 08:08:56;;;;;;;68.93;3.40;;;17.50;1.00;;;;;;4896472;29;20424;-84
2023/06/03 08:11:22;;;;;;;68.97;4.00;;;17.50;1.00;;;;;;4897411;29;20426;-85
2023/06/03 08:13:48;;;;;;;69.67;4.10;;;17.60;1.00;;;;;;4896466;29;20465;-85
2023/06/03 08:16:18;;;;;;;69.63;3.60;;;17.70;1.00;;;;;;4897218;29;20471;-85
2023/06/03 08:18:50;;;;;;;67.47;3.80;;;17.70;1.00;;;;;;4898312;29;20406;-85
2023/06/03 08:21:17;;;;;;;67.80;3.77;;;17.70;1.00;;;;;;4897260;29;20417;-84
2023/06/03 08:23:43;;;;;;;68.00;3.60;;;17.80;1.00;;;;;;4895869;29;20433;-85
2023/06/03 08:26:10;;;;;;;69.90;4.30;;;17.90;1.00;;;;;;4896616;29;20502;-85
2023/06/03 08:28:40;;;;;;;68.73;4.67;;;18.00;1.00;;;;;;4897265;29;20182;-85
2023/06/03 08:31:06;;;;;;;66.10;3.47;;;18.00;1.00;;;;;;4897192;29;20419;-85
2023/06/03 08:33:32;;;;;;;69.80;4.40;;;18.00;1.00;;;;;;4897928;29;20476;-85
2023/06/03 08:35:57;;;;;;;68.37;4.30;;;18.10;1.00;;;;;;4896367;29;20506;-85
2023/06/03 08:38:23;;;;;;;67.10;4.00;;;18.20;1.00;;;;;;4896919;29;20179;-85
2023/06/03 08:40:53;;;;;;;68.00;5.20;;;18.30;1.00;;;;;;4895796;29;20194;-85
2023/06/03 08:43:21;;;;;;;68.27;3.60;;;18.20;1.00;;;;;;4897586;29;20411;-85
2023/06/03 08:46:12;;;;;;;68.43;3.60;;;18.40;1.00;;;;;;4897207;29;20430;-85
2023/06/03 08:49:07;;;;;;;66.90;3.93;;;18.60;1.00;;;;;;4896710;29;20388;-85
2023/06/03 08:51:42;;;;;;;67.87;3.83;;;18.70;1.00;;;;;;4894871;29;20487;-85
2023/06/03 08:54:15;;;;;;;67.20;5.00;;;18.80;1.00;;;;;;4895948;29;20484;-85
2023/06/03 08:56:44;;;;;;;73.20;4.30;;;18.70;1.00;;;;;;4897855;29;20427;-86
2023/06/03 08:59:19;;;;;;;70.97;4.20;;;18.80;1.00;;;;;;4897423;29;20412;-85
2023/06/03 09:01:46;;;;;;;68.23;4.23;;;18.90;1.00;;;;;;4896481;29;20395;-85
2023/06/03 09:04:13;;;;;;;70.20;4.30;;;19.10;1.00;;;;;;4894366;29;20502;-85
2023/06/03 09:06:44;;;;;;;67.80;4.00;;;19.20;1.00;;;;;;4893315;29;20435;-85
2023/06/03 09:09:12;;;;;;;69.33;4.47;;;19.30;1.00;;;;;;4894089;29;20922;-84
2023/06/03 09:11:39;;;;;;;67.10;3.90;;;19.40;1.00;;;;;;4891615;29;20418;-84
2023/06/03 09:14:05;;;;;;;72.33;4.17;;;19.60;1.00;;;;;;4893870;29;20451;-84
2023/06/03 09:16:32;;;;;;;67.93;3.83;;;19.70;1.00;;;;;;4893520;29;20492;-84
2023/06/03 09:18:59;;;;;;;67.63;3.60;;;19.80;1.00;;;;;;4895408;29;20404;-84
2023/06/03 09:21:26;;;;;;;71.13;4.03;;;20.00;1.00;;;;;;4892618;29;20435;-84
2023/06/03 09:23:51;;;;;;;67.30;3.30;;;20.10;1.00;;;;;;4892599;29;20412;-84
2023/06/03 09:26:18;;;;;;;67.97;4.00;;;20.20;1.00;;;;;;4894792;29;20427;-84
2023/06/03 09:28:45;;;;;;;68.83;3.60;;;20.40;1.00;;;;;;4892359;29;20171;-86
2023/06/03 09:31:11;;;;;;;67.40;3.70;;;20.40;1.00;;;;;;4894397;29;20821;-86
2023/06/03 09:33:37;;;;;;;70.80;3.87;;;20.50;1.00;;;;;;4894000;29;20461;-86
2023/06/03 09:36:13;;;;;;;71.63;3.57;;;20.60;1.00;;;;;;4894168;29;20261;-85
2023/06/03 09:38:49;;;;;;;75.93;4.47;;;20.70;1.00;;;;;;4890732;29;20412;-86
2023/06/03 09:41:20;;;;;;;70.40;4.00;;;20.80;1.00;;;;;;4887887;29;20416;-86
2023/06/03 09:43:55;;;;;;;67.60;3.50;;;20.90;1.00;;;;;;4891442;29;20389;-86
2023/06/03 09:46:22;;;;;;;68.70;3.40;;;21.00;1.00;;;;;;4893136;29;20439;-85
2023/06/03 09:51:15;;;;;;;69.23;4.47;;;21.20;1.00;;;;;;4879901;29;20467;-78
2023/06/03 09:53:41;;;;;;;69.07;6.00;;;21.50;1.00;;;;;;4880824;29;20547;-77
2023/06/03 09:56:39;;;;;;;72.97;6.80;;;21.50;1.00;;;;;;4881036;29;20236;-78
2023/06/03 09:59:21;;;;;;;72.07;10.77;;;21.40;1.00;;;;;;4859904;29;20186;-77
2023/06/03 10:01:47;;;;;;;71.43;10.60;;;21.50;1.00;;;;;;4880008;29;20510;-77
2023/06/03 10:04:23;;;;;;;70.17;10.47;;;21.40;1.00;;;;;;4880807;29;20416;-78
2023/06/03 10:07:07;;;;;;;68.13;4.80;;;21.40;1.00;;;;;;4881269;29;20434;-78
2023/06/03 10:09:33;;;;;;;73.30;9.97;;;21.80;1.00;;;;;;4880308;29;20426;-77
2023/06/03 10:11:59;;;;;;;77.10;17.07;;;21.90;1.00;;;;;;4881874;29;20457;-78
2023/06/03 10:14:26;;;;;;;74.27;15.50;;;22.00;1.00;;;;;;4881361;29;20189;-77
2023/06/03 10:17:09;;;;;;;73.53;17.10;;;22.00;1.00;;;;;;4881270;29;20847;-78
2023/06/03 10:19:37;;;;;;;76.50;20.13;;;22.00;1.00;;;;;;4881594;29;20395;-77
2023/06/03 10:22:04;;;;;;;73.70;15.77;;;22.10;1.00;;;;;;4881558;29;20427;-78
2023/06/03 10:24:32;;;;;;;76.53;17.10;;;22.10;1.00;;;;;;4883524;29;20407;-77
2023/06/03 10:26:58;;;;;;;74.27;14.00;;;22.30;1.00;;;;;;4884307;29;20579;-77
2023/06/03 10:29:25;;;;;;;75.67;13.70;;;22.60;1.00;;;;;;4885158;29;20849;-78
2023/06/03 10:31:53;;;;;;;74.03;8.00;;;23.00;1.00;;;;;;4883765;29;20236;-77
2023/06/03 10:34:19;;;;;;;75.77;14.60;;;23.40;1.00;;;;;;4885090;29;20457;-78
2023/06/03 10:36:55;;;;;;;71.90;6.33;;;23.40;1.00;;;;;;4884402;29;20973;-78
2023/06/03 10:39:23;;;;;;;74.10;11.67;;;23.50;1.00;;;;;;4884985;29;20455;-78
2023/06/03 10:41:52;;;;;;;71.10;5.70;;;23.30;1.00;;;;;;4884591;29;20414;-78
2023/06/03 10:44:19;;;;;;;69.97;3.77;;;23.80;1.00;;;;;;4884856;29;20467;-79
2023/06/03 10:47:12;;;;;;;68.93;3.60;;;24.00;1.00;;;;;;4884985;29;20854;-78
2023/06/03 10:49:43;;;;;;;73.40;4.67;;;24.10;1.00;;;;;;4882978;29;20792;-78
2023/06/03 10:52:25;;;;;;;70.87;3.73;;;24.20;1.00;;;;;;4884693;29;20764;-78
2023/06/03 10:54:53;;;;;;;70.50;4.50;;;24.00;1.00;;;;;;4884583;29;20776;-78
2023/06/03 10:57:25;;;;;;;68.60;3.13;;;24.10;1.00;;;;;;4884458;29;20423;-78
2023/06/03 10:59:51;;;;;;;69.70;3.23;;;24.10;1.00;;;;;;4884040;29;20400;-79
2023/06/03 11:02:17;;;;;;;69.20;3.50;;;23.80;1.00;;;;;;4884129;29;20472;-79
2023/06/03 11:04:43;;;;;;;68.50;3.60;;;23.70;1.00;;;;;;4885509;29;20483;-79
2023/06/03 11:07:30;;;;;;;69.73;3.53;;;23.70;1.00;;;;;;4885147;29;20294;-79
2023/06/03 11:09:56;;;;;;;70.00;3.37;;;24.10;1.00;;;;;;4884223;29;20197;-78
2023/06/03 11:12:42;;;;;;;72.10;3.50;;;24.50;1.00;;;;;;4884615;29;20488;-79
2023/06/03 11:15:07;;;;;;;67.90;3.13;;;24.80;1.00;;;;;;4884738;29;20851;-78
2023/06/03 11:17:33;;;;;;;71.27;3.27;;;25.40;1.00;;;;;;4885768;29;20425;-79
2023/06/03 11:19:59;;;;;;;68.13;3.03;;;25.40;1.00;;;;;;4885290;29;20168;-79
2023/06/03 11:22:27;;;;;;;68.13;3.50;;;25.00;1.00;;;;;;4884414;29;20640;-79
2023/06/03 11:24:54;;;;;;;68.97;3.97;;;25.10;1.00;;;;;;4884707;29;20414;-78
2023/06/03 11:27:23;;;;;;;73.77;3.33;;;25.00;1.00;;;;;;4885352;29;20425;-78
2023/06/03 11:29:49;;;;;;;68.40;3.20;;;24.80;1.00;;;;;;4885052;29;20409;-78
2023/06/03 11:32:19;;;;;;;69.67;4.00;;;25.10;1.00;;;;;;4885838;29;20463;-78
2023/06/03 11:34:47;;;;;;;68.27;3.20;;;24.70;1.00;;;;;;4885209;29;20450;-79
2023/06/03 11:37:20;;;;;;;69.70;3.50;;;24.50;1.00;;;;;;4886578;29;20426;-79
2023/06/03 11:40:07;;;;;;;71.20;4.07;;;24.80;1.00;;;;;;4885949;29;20389;-79
2023/06/03 11:42:55;;;;;;;75.07;4.07;;;24.80;1.00;;;;;;4884838;29;20402;-79
2023/06/03 11:45:21;;;;;;;73.97;3.50;;;25.30;1.00;;;;;;4885529;29;20441;-79
2023/06/03 11:48:07;;;;;;;73.27;3.53;;;25.50;1.00;;;;;;4883947;29;20445;-78
2023/06/03 11:50:47;;;;;;;72.10;3.27;;;25.70;1.00;;;;;;4885453;29;20189;-78
2023/06/03 11:53:33;;;;;;;70.83;3.57;;;25.50;1.00;;;;;;4884927;29;20533;-79
2023/06/03 11:56:07;;;;;;;68.17;2.77;;;25.70;1.00;;;;;;4884478;29;20823;-78
2023/06/03 11:58:34;;;;;;;69.37;2.90;;;26.20;1.00;;;;;;4883266;29;20563;-78
2023/06/03 12:01:17;;;;;;;72.60;2.83;;;26.60;1.00;;;;;;4883275;29;20426;-78
2023/06/03 12:04:03;;;;;;;71.47;3.00;;;26.60;1.00;;;;;;4884094;29;20433;-78
2023/06/03 12:06:35;;;;;;;69.67;3.47;;;27.00;1.00;;;;;;4883734;29;20471;-78
2023/06/03 12:09:01;;;;;;;69.50;3.23;;;26.60;1.00;;;;;;4884893;29;20506;-78
2023/06/03 12:11:32;;;;;;;68.47;3.23;;;26.50;1.00;;;;;;4883714;29;20844;-78
2023/06/03 12:13:58;;;;;;;68.77;3.00;;;26.40;1.00;;;;;;4882299;29;20819;-78
2023/06/03 12:16:28;;;;;;;69.37;2.77;;;26.60;1.00;;;;;;4882941;29;20454;-78
2023/06/03 12:18:54;;;;;;;70.23;2.60;;;26.50;1.00;;;;;;4883444;29;20167;-78
2023/06/03 12:21:23;;;;;;;71.60;3.27;;;26.50;1.00;;;;;;4883657;29;20403;-78
2023/06/03 12:23:49;;;;;;;68.97;3.10;;;26.60;1.00;;;;;;4883415;29;20746;-78
2023/06/03 12:26:15;;;;;;;70.47;3.37;;;26.50;1.00;;;;;;4884196;29;20438;-78
2023/06/03 12:28:40;;;;;;;74.53;3.20;;;26.90;1.00;;;;;;4884534;29;20174;-78
2023/06/03 12:31:16;;;;;;;76.50;3.20;;;26.80;1.00;;;;;;4883686;29;20411;-78
2023/06/03 12:33:44;;;;;;;68.30;2.77;;;27.00;1.00;;;;;;4881926;29;20639;-78
2023/06/03 12:36:10;;;;;;;69.13;2.93;;;27.00;1.00;;;;;;4883663;29;20843;-78
2023/06/03 12:38:59;;;;;;;70.00;2.80;;;26.80;1.00;;;;;;4882796;29;20440;-78
2023/06/03 12:41:25;;;;;;;69.67;3.20;;;26.80;1.00;;;;;;4883342;29;20934;-78
2023/06/03 12:44:04;;;;;;;72.43;3.43;;;26.90;1.00;;;;;;4882911;29;20475;-78
2023/06/03 12:46:30;;;;;;;69.07;2.93;;;27.10;1.00;;;;;;4881628;29;20462;-78
2023/06/03 12:49:12;;;;;;;73.60;3.37;;;27.20;1.00;;;;;;4883016;29;20443;-78
2023/06/03 12:51:38;;;;;;;68.83;3.27;;;27.00;1.00;;;;;;4883172;29;20388;-78
2023/06/03 12:54:05;;;;;;;69.40;3.20;;;27.00;1.00;;;;;;4883951;29;20455;-78